Time;durP1;ratioP1;P1;durP2;ratioP2;P2;SDS_P1;SDS_P2;PMS_P1;PMS_P2;Temp;Humidity;BMP_temperature;BMP_pressure;BME280_temperature;BME280_humidity;BME280_pressure;Samples;Min_cycle;Max_cycle;Signal;HPM_P1;HPM_P2
2023/03/01 00:01:55;;;;;;;6.95;2.88;;;;;;;;;;5015596;28;20046;-75
2023/03/01 00:04:21;;;;;;;3.65;2.13;;;;;;;;;;5014267;28;20037;-75
2023/03/01 00:06:47;;;;;;;4.13;1.83;;;;;;;;;;5009004;28;20066;-74
2023/03/01 00:09:13;;;;;;;2.35;1.30;;;;;;;;;;5008758;28;20041;-75
2023/03/01 00:11:39;;;;;;;1.98;1.20;;;;;;;;;;5007446;28;20075;-75
2023/03/01 00:14:04;;;;;;;2.03;1.10;;;;;;;;;;5026305;28;20109;-75
2023/03/01 00:16:38;;;;;;;2.45;1.30;;;;;;;;;;5000524;28;20043;-75
2023/03/01 00:19:04;;;;;;;2.33;1.17;;;;;;;;;;5010610;28;20473;-75
2023/03/01 00:21:29;;;;;;;3.33;1.30;;;;;;;;;;4998356;28;20046;-74
2023/03/01 00:23:55;;;;;;;2.22;1.00;;;;;;;;;;5025910;28;20038;-75
2023/03/01 00:26:24;;;;;;;1.50;0.90;;;;;;;;;;4999953;28;20037;-75
2023/03/01 00:28:51;;;;;;;1.58;0.90;;;;;;;;;;5015043;28;20385;-75
2023/03/01 00:31:20;;;;;;;2.53;1.10;;;;;;;;;;5015627;28;20049;-75
2023/03/01 00:33:46;;;;;;;1.30;0.80;;;;;;;;;;5012210;28;20160;-75
2023/03/01 00:36:13;;;;;;;3.45;0.70;;;;;;;;;;5013441;28;20089;-75
2023/03/01 00:38:41;;;;;;;4.80;1.20;;;;;;;;;;5009629;28;20041;-75
2023/03/01 00:41:11;;;;;;;2.58;0.90;;;;;;;;;;5030906;28;20037;-75
2023/03/01 00:43:37;;;;;;;1.05;0.70;;;;;;;;;;5009354;28;20391;-75
2023/03/01 00:46:05;;;;;;;1.23;0.70;;;;;;;;;;5003574;28;20034;-75
2023/03/01 00:48:31;;;;;;;4.45;1.00;;;;;;;;;;5030138;28;20061;-74
2023/03/01 00:50:56;;;;;;;1.58;0.82;;;;;;;;;;5015159;28;20096;-75
2023/03/01 00:53:22;;;;;;;2.05;0.85;;;;;;;;;;5014595;28;20494;-75
2023/03/01 00:55:47;;;;;;;1.15;0.70;;;;;;;;;;5003165;28;20048;-75
2023/03/01 00:58:13;;;;;;;1.92;0.60;;;;;;;;;;5000806;28;20047;-75
2023/03/01 01:00:38;;;;;;;2.38;0.70;;;;;;;;;;5012970;28;20112;-75
2023/03/01 01:03:03;;;;;;;1.13;0.68;;;;;;;;;;5013959;28;20112;-76
2023/03/01 01:05:29;;;;;;;1.75;0.90;;;;;;;;;;5004958;28;20030;-75
2023/03/01 01:07:54;;;;;;;4.57;0.75;;;;;;;;;;5001588;28;20050;-74
2023/03/01 01:10:20;;;;;;;1.63;0.80;;;;;;;;;;5001805;28;20057;-75
2023/03/01 01:12:46;;;;;;;2.08;0.80;;;;;;;;;;4999661;28;20478;-75
2023/03/01 01:15:13;;;;;;;1.73;0.77;;;;;;;;;;5007316;28;21298;-75
2023/03/01 01:17:39;;;;;;;3.30;0.70;;;;;;;;;;5004033;28;20106;-75
2023/03/01 01:20:05;;;;;;;2.47;1.02;;;;;;;;;;5010369;28;20215;-75
2023/03/01 01:22:30;;;;;;;3.83;1.02;;;;;;;;;;5013363;28;20553;-75
2023/03/01 01:24:56;;;;;;;2.10;0.80;;;;;;;;;;5014294;28;20038;-75
2023/03/01 01:27:21;;;;;;;2.38;0.85;;;;;;;;;;5013320;28;20044;-75
2023/03/01 01:29:47;;;;;;;2.40;0.90;;;;;;;;;;5010609;28;20037;-74
2023/03/01 01:32:12;;;;;;;2.05;0.85;;;;;;;;;;5001117;28;20382;-75
2023/03/01 01:34:38;;;;;;;1.27;0.57;;;;;;;;;;5005327;28;20056;-75
2023/03/01 01:37:07;;;;;;;1.25;0.80;;;;;;;;;;5004320;28;20135;-76
2023/03/01 01:39:33;;;;;;;2.25;0.80;;;;;;;;;;5001068;28;20036;-75
2023/03/01 01:42:00;;;;;;;2.25;0.77;;;;;;;;;;5025737;28;20053;-74
2023/03/01 01:44:28;;;;;;;3.35;0.57;;;;;;;;;;5019166;28;20042;-74
2023/03/01 01:46:58;;;;;;;1.00;0.65;;;;;;;;;;5028590;28;20029;-74
2023/03/01 01:49:37;;;;;;;1.15;0.70;;;;;;;;;;5008814;28;20080;-75
2023/03/01 01:52:05;;;;;;;1.15;0.73;;;;;;;;;;5011351;28;20486;-75
2023/03/01 01:54:40;;;;;;;1.63;0.90;;;;;;;;;;5014090;28;20057;-74
2023/03/01 01:57:10;;;;;;;2.22;0.82;;;;;;;;;;5009551;28;20038;-74
2023/03/01 01:59:36;;;;;;;1.67;0.82;;;;;;;;;;5005599;28;20042;-75
2023/03/01 02:02:03;;;;;;;1.30;0.80;;;;;;;;;;5003127;28;20454;-75
2023/03/01 02:04:30;;;;;;;4.47;0.90;;;;;;;;;;5009295;28;20124;-74
2023/03/01 02:07:03;;;;;;;1.70;0.98;;;;;;;;;;5011697;28;20046;-75
2023/03/01 02:09:30;;;;;;;2.22;0.80;;;;;;;;;;5028713;28;20045;-74
2023/03/01 02:11:55;;;;;;;1.33;0.73;;;;;;;;;;5012358;28;20113;-75
2023/03/01 02:14:21;;;;;;;3.55;0.77;;;;;;;;;;5028058;28;20041;-75
2023/03/01 02:16:47;;;;;;;0.93;0.60;;;;;;;;;;5008062;28;20042;-74
2023/03/01 02:19:23;;;;;;;3.03;0.90;;;;;;;;;;5006544;28;20050;-74
2023/03/01 02:22:00;;;;;;;1.92;0.77;;;;;;;;;;5024941;28;20486;-75
2023/03/01 02:24:33;;;;;;;2.85;0.77;;;;;;;;;;5006676;28;20513;-75
2023/03/01 02:26:58;;;;;;;3.90;0.97;;;;;;;;;;5006049;28;20050;-75
2023/03/01 02:29:24;;;;;;;2.53;0.95;;;;;;;;;;5011780;28;20497;-74
2023/03/01 02:31:51;;;;;;;0.85;0.55;;;;;;;;;;5013578;28;20038;-74
2023/03/01 02:34:20;;;;;;;3.03;1.10;;;;;;;;;;5005494;28;20042;-75
2023/03/01 02:36:48;;;;;;;1.48;0.88;;;;;;;;;;5006654;28;20073;-74
2023/03/01 02:39:22;;;;;;;3.33;1.10;;;;;;;;;;5028420;28;20036;-75
2023/03/01 02:41:51;;;;;;;3.03;1.00;;;;;;;;;;5005536;28;20111;-75
2023/03/01 02:44:16;;;;;;;2.75;1.10;;;;;;;;;;5011923;28;20037;-74
2023/03/01 02:46:51;;;;;;;1.58;0.95;;;;;;;;;;5010011;28;20022;-75
2023/03/01 02:49:26;;;;;;;3.83;1.30;;;;;;;;;;4991314;28;20100;-74
2023/03/01 02:52:08;;;;;;;2.65;0.90;;;;;;;;;;5002220;28;20042;-74
2023/03/01 02:54:40;;;;;;;1.80;1.00;;;;;;;;;;5006737;28;20042;-74
2023/03/01 02:57:05;;;;;;;1.77;1.00;;;;;;;;;;5008846;28;20034;-75
2023/03/01 02:59:38;;;;;;;3.78;1.13;;;;;;;;;;5013024;28;20057;-74
2023/03/01 03:02:04;;;;;;;3.20;1.08;;;;;;;;;;5027555;28;20498;-74
2023/03/01 03:04:30;;;;;;;3.05;1.10;;;;;;;;;;5007140;28;20119;-74
2023/03/01 03:06:55;;;;;;;2.63;1.00;;;;;;;;;;5004693;28;20034;-74
2023/03/01 03:09:21;;;;;;;2.38;1.20;;;;;;;;;;5002684;28;20371;-76
2023/03/01 03:11:46;;;;;;;2.33;1.38;;;;;;;;;;5010656;28;20382;-75
2023/03/01 03:14:13;;;;;;;8.02;1.30;;;;;;;;;;5012660;28;20049;-74
2023/03/01 03:16:44;;;;;;;1.60;1.00;;;;;;;;;;5005730;28;20386;-74
2023/03/01 03:19:10;;;;;;;2.42;0.95;;;;;;;;;;5015111;28;20117;-74
2023/03/01 03:21:36;;;;;;;3.92;1.45;;;;;;;;;;5013140;28;20120;-74
2023/03/01 03:24:01;;;;;;;3.90;1.50;;;;;;;;;;5027986;28;20042;-75
2023/03/01 03:26:27;;;;;;;2.33;1.30;;;;;;;;;;5007192;28;20040;-74
2023/03/01 03:28:52;;;;;;;4.22;1.50;;;;;;;;;;5001138;28;20038;-75
2023/03/01 03:31:18;;;;;;;2.92;1.85;;;;;;;;;;5005883;28;20067;-74
2023/03/01 03:33:43;;;;;;;4.13;1.30;;;;;;;;;;4997458;28;20096;-75
2023/03/01 03:36:12;;;;;;;3.85;1.38;;;;;;;;;;4997954;28;20088;-75
2023/03/01 03:38:39;;;;;;;1.38;1.00;;;;;;;;;;5013039;28;20398;-74
2023/03/01 03:41:07;;;;;;;4.68;1.60;;;;;;;;;;5027926;28;20026;-75
2023/03/01 03:43:35;;;;;;;3.50;1.40;;;;;;;;;;5011063;28;20033;-74
2023/03/01 03:46:05;;;;;;;3.00;1.65;;;;;;;;;;5010851;28;20026;-74
2023/03/01 03:48:34;;;;;;;3.55;1.42;;;;;;;;;;5027267;28;20041;-74
2023/03/01 03:50:59;;;;;;;2.78;1.38;;;;;;;;;;5008702;28;20041;-74
2023/03/01 03:53:26;;;;;;;6.20;1.50;;;;;;;;;;5012808;28;20058;-75
2023/03/01 03:55:52;;;;;;;4.03;1.70;;;;;;;;;;5028463;28;20355;-75
2023/03/01 03:58:19;;;;;;;2.90;1.33;;;;;;;;;;5015928;28;20048;-74
2023/03/01 04:00:46;;;;;;;3.72;1.70;;;;;;;;;;5015834;28;20487;-75
2023/03/01 04:03:13;;;;;;;3.08;1.33;;;;;;;;;;5015710;28;20104;-75
2023/03/01 04:05:40;;;;;;;2.67;1.05;;;;;;;;;;5016201;28;20033;-74
2023/03/01 04:08:08;;;;;;;3.55;1.40;;;;;;;;;;5007901;28;20091;-74
2023/03/01 04:10:38;;;;;;;3.65;1.50;;;;;;;;;;5010696;28;20027;-74
2023/03/01 04:13:04;;;;;;;3.08;1.35;;;;;;;;;;5031001;28;20496;-75
2023/03/01 04:15:31;;;;;;;2.33;1.42;;;;;;;;;;5030927;28;20397;-74
2023/03/01 04:17:56;;;;;;;3.25;1.52;;;;;;;;;;5015868;28;20030;-74
2023/03/01 04:20:24;;;;;;;2.20;1.25;;;;;;;;;;5014869;28;20383;-74
2023/03/01 04:22:51;;;;;;;2.90;1.20;;;;;;;;;;5014210;28;20125;-74
2023/03/01 04:25:16;;;;;;;5.50;1.55;;;;;;;;;;5014273;28;20428;-74
2023/03/01 04:27:42;;;;;;;2.40;1.38;;;;;;;;;;5015711;28;20045;-74
2023/03/01 04:30:08;;;;;;;3.35;1.60;;;;;;;;;;5015378;28;20405;-75
2023/03/01 04:32:33;;;;;;;2.38;1.48;;;;;;;;;;5003924;28;20037;-76
2023/03/01 04:34:59;;;;;;;3.63;1.55;;;;;;;;;;5013627;28;20091;-73
2023/03/01 04:37:25;;;;;;;3.78;1.90;;;;;;;;;;5008632;28;20034;-74
2023/03/01 04:39:50;;;;;;;2.72;1.60;;;;;;;;;;5012261;28;20509;-73
2023/03/01 04:42:16;;;;;;;4.03;1.90;;;;;;;;;;5015310;28;20041;-73
2023/03/01 04:44:43;;;;;;;7.38;2.13;;;;;;;;;;5014910;28;20033;-73
2023/03/01 04:47:08;;;;;;;4.95;1.88;;;;;;;;;;5008855;28;20041;-74
2023/03/01 04:49:34;;;;;;;3.13;1.77;;;;;;;;;;5011245;28;20038;-74
2023/03/01 04:52:01;;;;;;;3.72;1.67;;;;;;;;;;5006884;28;20508;-73
2023/03/01 04:54:28;;;;;;;3.25;1.83;;;;;;;;;;5009256;28;20104;-74
2023/03/01 04:56:54;;;;;;;6.13;2.30;;;;;;;;;;5015637;28;20069;-75
2023/03/01 04:59:22;;;;;;;3.55;2.03;;;;;;;;;;5005114;28;20434;-74
2023/03/01 05:01:48;;;;;;;4.13;1.70;;;;;;;;;;5003711;28;20052;-74
2023/03/01 05:04:14;;;;;;;3.40;1.60;;;;;;;;;;5011961;28;20042;-73
2023/03/01 05:06:39;;;;;;;3.25;1.42;;;;;;;;;;5013831;28;20109;-75
2023/03/01 05:09:05;;;;;;;2.92;1.65;;;;;;;;;;5013956;28;20034;-73
2023/03/01 05:11:35;;;;;;;6.13;1.80;;;;;;;;;;5014961;28;20377;-74
2023/03/01 05:14:04;;;;;;;3.08;1.60;;;;;;;;;;5013569;28;20137;-74
2023/03/01 05:16:30;;;;;;;5.82;1.85;;;;;;;;;;5010392;28;20127;-73
2023/03/01 05:18:56;;;;;;;4.00;1.45;;;;;;;;;;5012413;28;20046;-74
2023/03/01 05:21:22;;;;;;;2.83;1.50;;;;;;;;;;5014767;28;20045;-73
2023/03/01 05:23:47;;;;;;;3.67;1.77;;;;;;;;;;5004251;28;20122;-74
2023/03/01 05:26:13;;;;;;;5.32;1.67;;;;;;;;;;5011170;28;20462;-74
2023/03/01 05:28:39;;;;;;;5.45;2.00;;;;;;;;;;5029491;28;20088;-73
2023/03/01 05:31:09;;;;;;;4.13;1.60;;;;;;;;;;5014297;28;20481;-74
2023/03/01 05:33:39;;;;;;;8.95;2.00;;;;;;;;;;5009821;28;20046;-74
2023/03/01 05:36:09;;;;;;;4.65;1.65;;;;;;;;;;5012264;28;20105;-73
2023/03/01 05:38:34;;;;;;;3.20;1.38;;;;;;;;;;5014376;28;20073;-74
2023/03/01 05:41:00;;;;;;;4.03;1.65;;;;;;;;;;5001084;28;20089;-74
2023/03/01 05:43:25;;;;;;;4.68;1.35;;;;;;;;;;4999679;28;20085;-75
2023/03/01 05:45:51;;;;;;;2.92;1.30;;;;;;;;;;5005611;28;20397;-73
2023/03/01 05:48:19;;;;;;;6.22;1.95;;;;;;;;;;5014072;28;20120;-73
2023/03/01 05:50:45;;;;;;;6.00;1.80;;;;;;;;;;5012968;28;20405;-75
2023/03/01 05:53:17;;;;;;;6.95;2.05;;;;;;;;;;5013454;28;20050;-73
2023/03/01 05:55:44;;;;;;;2.60;1.45;;;;;;;;;;5012925;28;20109;-74
2023/03/01 05:58:15;;;;;;;4.28;2.10;;;;;;;;;;5028385;28;20034;-73
2023/03/01 06:00:40;;;;;;;5.53;2.88;;;;;;;;;;5009507;28;20030;-73
2023/03/01 06:03:06;;;;;;;4.97;1.20;;;;;;;;;;5008347;28;20092;-73
2023/03/01 06:05:31;;;;;;;4.35;1.95;;;;;;;;;;5013979;28;20030;-74
2023/03/01 06:08:01;;;;;;;5.93;2.17;;;;;;;;;;5013729;28;20048;-73
2023/03/01 06:10:26;;;;;;;5.00;1.60;;;;;;;;;;4998182;28;20509;-75
2023/03/01 06:12:52;;;;;;;5.68;2.35;;;;;;;;;;5026274;28;20053;-73
2023/03/01 06:15:17;;;;;;;3.38;2.03;;;;;;;;;;5001065;28;20049;-73
2023/03/01 06:17:45;;;;;;;3.67;1.40;;;;;;;;;;5000645;28;20040;-74
2023/03/01 06:20:12;;;;;;;4.15;1.33;;;;;;;;;;5003877;28;20474;-73
2023/03/01 06:22:38;;;;;;;7.03;2.25;;;;;;;;;;5028752;28;20536;-74
2023/03/01 06:25:05;;;;;;;6.72;2.30;;;;;;;;;;5028204;28;20041;-74
2023/03/01 06:27:30;;;;;;;5.65;1.98;;;;;;;;;;5004301;28;20034;-73
2023/03/01 06:29:56;;;;;;;4.68;2.03;;;;;;;;;;5013289;28;20041;-73
2023/03/01 06:32:22;;;;;;;2.92;1.70;;;;;;;;;;5006797;28;20038;-73
2023/03/01 06:34:47;;;;;;;5.15;1.90;;;;;;;;;;5011323;28;20029;-74
2023/03/01 06:37:12;;;;;;;7.20;2.35;;;;;;;;;;5013347;28;20386;-74
2023/03/01 06:39:38;;;;;;;5.45;2.03;;;;;;;;;;5013583;28;20057;-73
2023/03/01 06:42:04;;;;;;;7.10;1.75;;;;;;;;;;5010738;28;20113;-74
2023/03/01 06:44:29;;;;;;;7.03;2.42;;;;;;;;;;5001969;28;20176;-73
2023/03/01 06:46:55;;;;;;;3.50;1.73;;;;;;;;;;5012059;28;20041;-74
2023/03/01 06:49:20;;;;;;;2.95;1.50;;;;;;;;;;5013380;28;20033;-73
2023/03/01 06:51:46;;;;;;;6.50;2.22;;;;;;;;;;5012104;28;20100;-74
2023/03/01 06:54:11;;;;;;;6.82;1.95;;;;;;;;;;5011665;28;20049;-74
2023/03/01 06:56:37;;;;;;;6.55;1.55;;;;;;;;;;5011989;28;20018;-74
2023/03/01 06:59:03;;;;;;;6.00;1.77;;;;;;;;;;5013082;28;20034;-74
2023/03/01 07:01:30;;;;;;;4.80;1.48;;;;;;;;;;5002947;28;20487;-78
2023/03/01 07:03:56;;;;;;;3.25;1.40;;;;;;;;;;5011488;28;20068;-74
2023/03/01 07:06:21;;;;;;;2.75;1.15;;;;;;;;;;5028461;28;20445;-74
2023/03/01 07:08:47;;;;;;;6.38;2.42;;;;;;;;;;5011596;28;20033;-76
2023/03/01 07:11:13;;;;;;;5.00;1.50;;;;;;;;;;5013390;28;20117;-74
2023/03/01 07:13:38;;;;;;;6.95;1.52;;;;;;;;;;5013011;28;20049;-74
2023/03/01 07:16:04;;;;;;;4.80;1.77;;;;;;;;;;5017876;28;20398;-73
2023/03/01 07:18:29;;;;;;;9.75;1.80;;;;;;;;;;5011334;28;20470;-74
2023/03/01 07:20:55;;;;;;;4.97;2.42;;;;;;;;;;5012584;28;20049;-73
2023/03/01 07:23:20;;;;;;;6.75;2.10;;;;;;;;;;5013332;28;20049;-73
2023/03/01 07:25:55;;;;;;;7.07;2.25;;;;;;;;;;5012526;28;20062;-75
2023/03/01 07:28:22;;;;;;;3.75;2.03;;;;;;;;;;5009240;28;20041;-75
2023/03/01 07:30:48;;;;;;;6.68;2.05;;;;;;;;;;5008467;28;21672;-76
2023/03/01 07:33:13;;;;;;;4.97;2.05;;;;;;;;;;5015468;28;20029;-74
2023/03/01 07:35:39;;;;;;;11.73;2.33;;;;;;;;;;5013196;28;20040;-75
2023/03/01 07:38:04;;;;;;;7.40;2.40;;;;;;;;;;5014800;28;20137;-75
2023/03/01 07:40:29;;;;;;;3.80;2.22;;;;;;;;;;5015617;28;20038;-75
2023/03/01 07:42:56;;;;;;;5.00;1.88;;;;;;;;;;5016734;28;20069;-75
2023/03/01 07:45:21;;;;;;;10.75;2.70;;;;;;;;;;5012454;28;20026;-75
2023/03/01 07:47:47;;;;;;;5.43;2.00;;;;;;;;;;5016413;28;20069;-75
2023/03/01 07:50:13;;;;;;;7.13;2.10;;;;;;;;;;5006554;28;20038;-76
2023/03/01 07:52:38;;;;;;;4.65;2.25;;;;;;;;;;5022433;28;20056;-75
2023/03/01 07:55:04;;;;;;;4.95;2.10;;;;;;;;;;5000796;28;20038;-75
2023/03/01 07:57:30;;;;;;;5.55;2.00;;;;;;;;;;5004457;28;20037;-76
2023/03/01 07:59:55;;;;;;;6.53;1.65;;;;;;;;;;5016325;28;20041;-75
2023/03/01 08:02:20;;;;;;;5.95;1.80;;;;;;;;;;5016212;28;20034;-75
2023/03/01 08:04:46;;;;;;;3.90;2.13;;;;;;;;;;5006425;28;20038;-75
2023/03/01 08:07:11;;;;;;;3.40;2.00;;;;;;;;;;5011995;28;20030;-75
2023/03/01 08:09:37;;;;;;;3.25;2.08;;;;;;;;;;5016112;28;20091;-75
2023/03/01 08:12:04;;;;;;;3.55;1.48;;;;;;;;;;5014931;28;20126;-75
2023/03/01 08:14:30;;;;;;;4.88;2.20;;;;;;;;;;5013689;28;20116;-75
2023/03/01 08:16:56;;;;;;;3.95;2.17;;;;;;;;;;5011619;28;20061;-75
2023/03/01 08:19:21;;;;;;;7.82;1.92;;;;;;;;;;5013369;28;20123;-75
2023/03/01 08:21:47;;;;;;;3.00;1.15;;;;;;;;;;5015905;28;20036;-75
2023/03/01 08:24:12;;;;;;;5.55;2.30;;;;;;;;;;5021457;28;20038;-75
2023/03/01 08:26:38;;;;;;;4.82;2.40;;;;;;;;;;5030972;28;20486;-75
2023/03/01 08:29:03;;;;;;;5.97;2.72;;;;;;;;;;5014944;28;20026;-75
2023/03/01 08:31:38;;;;;;;4.85;2.80;;;;;;;;;;5012771;28;20049;-75
2023/03/01 08:34:08;;;;;;;5.45;2.15;;;;;;;;;;5005126;28;20166;-75
2023/03/01 08:36:37;;;;;;;8.00;2.63;;;;;;;;;;5005264;28;20030;-75
2023/03/01 08:39:02;;;;;;;5.03;2.60;;;;;;;;;;5013553;28;20045;-75
2023/03/01 08:41:28;;;;;;;5.07;2.28;;;;;;;;;;5009655;28;20029;-76
2023/03/01 08:43:58;;;;;;;6.75;2.33;;;;;;;;;;5010915;28;20401;-75
2023/03/01 08:46:34;;;;;;;4.97;2.38;;;;;;;;;;5011763;28;20455;-75
2023/03/01 08:48:59;;;;;;;6.10;2.50;;;;;;;;;;5024269;28;20048;-75
2023/03/01 08:51:25;;;;;;;4.97;1.98;;;;;;;;;;5010385;28;20042;-75
2023/03/01 08:53:52;;;;;;;4.50;2.08;;;;;;;;;;5013415;28;20038;-75
2023/03/01 08:56:18;;;;;;;3.67;2.05;;;;;;;;;;5011257;28;20104;-75
2023/03/01 08:58:48;;;;;;;2.80;1.60;;;;;;;;;;5013967;28;20042;-75
2023/03/01 09:01:16;;;;;;;3.85;1.65;;;;;;;;;;5007633;28;20552;-75
2023/03/01 09:03:42;;;;;;;3.83;1.90;;;;;;;;;;5006765;28;20036;-75
2023/03/01 09:06:08;;;;;;;6.60;1.90;;;;;;;;;;5004487;28;20049;-76
2023/03/01 09:08:52;;;;;;;2.67;1.52;;;;;;;;;;4999800;28;20034;-75
2023/03/01 09:11:19;;;;;;;3.65;1.48;;;;;;;;;;4992939;28;20049;-74
2023/03/01 09:13:46;;;;;;;2.42;1.23;;;;;;;;;;5007808;28;20037;-75
2023/03/01 09:16:13;;;;;;;5.07;1.80;;;;;;;;;;5001898;28;20031;-74
2023/03/01 09:18:40;;;;;;;2.55;1.50;;;;;;;;;;4997626;28;20111;-75
2023/03/01 09:21:14;;;;;;;3.85;1.70;;;;;;;;;;5011009;28;20034;-75
2023/03/01 09:23:44;;;;;;;3.80;1.75;;;;;;;;;;5001813;28;20080;-75
2023/03/01 09:26:12;;;;;;;2.92;1.50;;;;;;;;;;5007647;28;20454;-75
2023/03/01 09:28:38;;;;;;;3.65;1.48;;;;;;;;;;5004243;28;20061;-75
2023/03/01 09:31:04;;;;;;;3.75;1.67;;;;;;;;;;5007763;28;20088;-75
2023/03/01 09:33:31;;;;;;;3.50;1.65;;;;;;;;;;5017728;28;20077;-75
2023/03/01 09:36:01;;;;;;;4.13;1.80;;;;;;;;;;4993273;28;21453;-75
2023/03/01 09:38:26;;;;;;;3.38;1.50;;;;;;;;;;5007852;28;20034;-74
2023/03/01 09:40:52;;;;;;;2.75;1.50;;;;;;;;;;5002233;28;20654;-75
2023/03/01 09:43:53;;;;;;;4.32;1.70;;;;;;;;;;4999031;28;20076;-75
2023/03/01 09:46:20;;;;;;;2.17;1.10;;;;;;;;;;5002843;28;20042;-75
2023/03/01 09:48:57;;;;;;;4.13;1.63;;;;;;;;;;5006896;28;20041;-75
2023/03/01 09:51:34;;;;;;;4.80;1.50;;;;;;;;;;5011292;28;20062;-75
2023/03/01 09:54:02;;;;;;;3.08;1.30;;;;;;;;;;4994404;28;20037;-74
2023/03/01 09:56:34;;;;;;;2.95;1.67;;;;;;;;;;5013763;28;20091;-74
2023/03/01 09:59:27;;;;;;;2.72;1.33;;;;;;;;;;5004002;28;20042;-74
2023/03/01 10:01:59;;;;;;;2.50;1.13;;;;;;;;;;5003113;28;20044;-76
2023/03/01 10:04:46;;;;;;;2.53;1.25;;;;;;;;;;4999221;28;20058;-75
2023/03/01 10:07:26;;;;;;;2.80;1.50;;;;;;;;;;4988750;28;20093;-75
2023/03/01 10:09:51;;;;;;;2.65;1.40;;;;;;;;;;5017665;28;20426;-75
2023/03/01 10:12:22;;;;;;;3.22;1.20;;;;;;;;;;5002624;28;20073;-75
2023/03/01 10:15:19;;;;;;;5.90;1.45;;;;;;;;;;5013955;28;20046;-75
2023/03/01 10:17:51;;;;;;;5.47;1.15;;;;;;;;;;4992591;28;20052;-74
2023/03/01 10:20:20;;;;;;;2.38;1.10;;;;;;;;;;5003455;28;20486;-75
2023/03/01 10:22:52;;;;;;;2.63;1.20;;;;;;;;;;4993772;28;20070;-74
2023/03/01 10:25:56;;;;;;;5.30;1.23;;;;;;;;;;4995411;28;20497;-75
2023/03/01 10:29:04;;;;;;;2.97;1.13;;;;;;;;;;4994646;28;20100;-75
2023/03/01 10:31:37;;;;;;;3.22;1.20;;;;;;;;;;4992244;28;20030;-75
2023/03/01 10:34:07;;;;;;;3.10;1.30;;;;;;;;;;5003672;28;20489;-74
2023/03/01 10:36:33;;;;;;;3.72;1.40;;;;;;;;;;5013693;28;20061;-74
2023/03/01 10:38:59;;;;;;;5.38;1.45;;;;;;;;;;5003544;28;20041;-75
2023/03/01 10:41:26;;;;;;;3.53;1.20;;;;;;;;;;5003948;28;20041;-75
2023/03/01 10:43:59;;;;;;;3.15;1.27;;;;;;;;;;5020297;28;20064;-75
2023/03/01 10:46:34;;;;;;;3.35;1.52;;;;;;;;;;5002447;28;20486;-75
2023/03/01 10:49:21;;;;;;;3.35;1.63;;;;;;;;;;5001986;28;20038;-74
2023/03/01 10:51:48;;;;;;;2.88;1.73;;;;;;;;;;5003768;28;20409;-75
2023/03/01 10:54:24;;;;;;;3.35;2.03;;;;;;;;;;5015637;28;20038;-74
2023/03/01 10:56:55;;;;;;;3.60;2.10;;;;;;;;;;5007312;28;20039;-76
2023/03/01 10:59:32;;;;;;;4.30;2.08;;;;;;;;;;4996093;28;20819;-76
2023/03/01 11:02:28;;;;;;;5.13;2.53;;;;;;;;;;5015120;28;20044;-74
2023/03/01 11:04:59;;;;;;;4.10;1.67;;;;;;;;;;5006026;28;20042;-76
2023/03/01 11:07:24;;;;;;;5.35;2.20;;;;;;;;;;5014556;28;20395;-76
2023/03/01 11:09:50;;;;;;;3.05;1.67;;;;;;;;;;5004040;28;20038;-74
2023/03/01 11:12:17;;;;;;;4.70;1.88;;;;;;;;;;5009609;28;20045;-74
2023/03/01 11:14:54;;;;;;;4.75;2.08;;;;;;;;;;5001879;28;20038;-74
2023/03/01 11:17:32;;;;;;;3.00;1.92;;;;;;;;;;5022791;28;20042;-75
2023/03/01 11:20:20;;;;;;;3.17;1.83;;;;;;;;;;5012645;28;20125;-75
2023/03/01 11:23:07;;;;;;;3.78;2.25;;;;;;;;;;5002053;28;20092;-74
2023/03/01 11:25:38;;;;;;;2.33;1.50;;;;;;;;;;5011694;28;20044;-75
2023/03/01 11:28:06;;;;;;;3.60;1.65;;;;;;;;;;5028099;28;20042;-75
2023/03/01 11:30:39;;;;;;;2.85;1.50;;;;;;;;;;5013202;28;20095;-74
2023/03/01 11:33:07;;;;;;;3.03;1.70;;;;;;;;;;5006357;28;20053;-75
2023/03/01 11:35:37;;;;;;;4.53;1.58;;;;;;;;;;4994125;28;20036;-74
2023/03/01 11:38:15;;;;;;;3.13;1.75;;;;;;;;;;5017358;28;20033;-74
2023/03/01 11:40:44;;;;;;;3.15;1.40;;;;;;;;;;5027759;28;20034;-75
2023/03/01 11:43:20;;;;;;;2.80;1.40;;;;;;;;;;5012722;28;20042;-74
2023/03/01 11:45:45;;;;;;;2.85;1.55;;;;;;;;;;5007959;28;20104;-75
2023/03/01 11:48:30;;;;;;;2.72;1.40;;;;;;;;;;4992950;28;20034;-75
2023/03/01 11:50:57;;;;;;;2.88;1.60;;;;;;;;;;5012394;28;20053;-75
2023/03/01 11:54:05;;;;;;;6.22;1.52;;;;;;;;;;5004272;28;20050;-75
2023/03/01 11:56:41;;;;;;;4.95;1.48;;;;;;;;;;4995952;28;20050;-76
2023/03/01 11:59:24;;;;;;;3.75;1.88;;;;;;;;;;4997702;28;20040;-75
2023/03/01 12:02:04;;;;;;;3.13;1.80;;;;;;;;;;5008679;28;20073;-75
2023/03/01 12:04:33;;;;;;;2.72;1.80;;;;;;;;;;5012750;28;20034;-74
2023/03/01 12:07:13;;;;;;;3.05;1.80;;;;;;;;;;5011895;28;20049;-74
2023/03/01 12:09:45;;;;;;;3.22;1.55;;;;;;;;;;5003175;28;20483;-77
2023/03/01 12:12:38;;;;;;;4.20;1.58;;;;;;;;;;5012561;28;20073;-74
2023/03/01 12:15:24;;;;;;;4.18;1.80;;;;;;;;;;5000254;28;20088;-75
2023/03/01 12:18:08;;;;;;;1.75;1.10;;;;;;;;;;5000348;28;20042;-74
2023/03/01 12:20:40;;;;;;;;;;;;;;;;;;5003073;28;20026;-76
2023/03/01 12:23:59;;;;;;;2.88;1.45;;;;;;;;;;5002600;28;19925;-75
2023/03/01 12:26:43;;;;;;;3.20;1.52;;;;;;;;;;4993369;28;20050;-75
2023/03/01 12:29:50;;;;;;;2.53;1.40;;;;;;;;;;5010072;28;20046;-74
2023/03/01 12:32:26;;;;;;;3.35;1.20;;;;;;;;;;5001136;28;20065;-74
2023/03/01 12:35:07;;;;;;;1.83;1.15;;;;;;;;;;5010821;28;20037;-75
2023/03/01 12:37:39;;;;;;;3.35;1.60;;;;;;;;;;5025734;28;20034;-74
2023/03/01 12:40:22;;;;;;;2.25;1.30;;;;;;;;;;4996910;28;20100;-75
2023/03/01 12:43:23;;;;;;;3.35;1.65;;;;;;;;;;5004604;28;20034;-74
2023/03/01 12:46:01;;;;;;;3.00;1.30;;;;;;;;;;5002282;28;20128;-74
2023/03/01 12:49:04;;;;;;;3.47;1.80;;;;;;;;;;5002061;28;20045;-75
2023/03/01 12:51:31;;;;;;;2.00;1.17;;;;;;;;;;5002516;28;20145;-76
2023/03/01 12:53:58;;;;;;;1.85;1.05;;;;;;;;;;5007588;28;20508;-75
2023/03/01 12:56:28;;;;;;;3.70;1.77;;;;;;;;;;5006353;28;20116;-74
2023/03/01 12:59:02;;;;;;;3.70;1.52;;;;;;;;;;5009228;28;20247;-73
2023/03/01 13:01:55;;;;;;;2.40;1.48;;;;;;;;;;4996023;28;20482;-74
2023/03/01 13:04:51;;;;;;;3.55;2.00;;;;;;;;;;5002428;28;20042;-74
2023/03/01 13:07:24;;;;;;;6.85;2.50;;;;;;;;;;4996100;28;20551;-74
2023/03/01 13:10:01;;;;;;;3.42;2.15;;;;;;;;;;5010664;28;20192;-74
2023/03/01 13:12:45;;;;;;;5.03;2.30;;;;;;;;;;5010587;28;20091;-74
2023/03/01 13:15:22;;;;;;;3.67;2.33;;;;;;;;;;5011068;28;20041;-74
2023/03/01 13:17:56;;;;;;;6.93;2.33;;;;;;;;;;5008744;28;20124;-74
2023/03/01 13:20:32;;;;;;;;;;;;;;;;;;5022923;28;20433;-74
2023/03/01 13:23:21;;;;;;;5.20;2.50;;;;;;;;;;5025671;28;19913;-74
2023/03/01 13:26:11;;;;;;;2.63;1.65;;;;;;;;;;4998401;28;20054;-76
2023/03/01 13:28:57;;;;;;;2.60;1.50;;;;;;;;;;5000020;28;20069;-74
2023/03/01 13:31:28;;;;;;;2.67;1.70;;;;;;;;;;5009970;28;20096;-74
2023/03/01 13:34:00;;;;;;;5.97;2.90;;;;;;;;;;5007988;28;20038;-74
2023/03/01 13:36:29;;;;;;;5.18;2.40;;;;;;;;;;4990437;28;20510;-74
2023/03/01 13:38:57;;;;;;;3.00;1.65;;;;;;;;;;5010373;28;20393;-74
2023/03/01 13:41:41;;;;;;;5.20;1.83;;;;;;;;;;5009314;28;20414;-74
2023/03/01 13:44:31;;;;;;;3.22;2.08;;;;;;;;;;4998455;28;20175;-74
2023/03/01 13:47:17;;;;;;;5.07;2.00;;;;;;;;;;5025923;28;20489;-75
2023/03/01 13:49:51;;;;;;;4.15;1.88;;;;;;;;;;4996688;28;20509;-74
2023/03/01 13:52:28;;;;;;;;;;;;;;;;;;5013827;28;20489;-74
2023/03/01 13:54:55;;;;;;;2.08;1.30;;;;;;;;;;5009264;28;19925;-74
2023/03/01 13:57:25;;;;;;;4.03;1.70;;;;;;;;;;5009823;28;20486;-74
2023/03/01 13:59:50;;;;;;;3.10;1.60;;;;;;;;;;5024776;28;20033;-74
2023/03/01 14:02:16;;;;;;;3.60;1.60;;;;;;;;;;5009441;28;20045;-75
2023/03/01 14:04:41;;;;;;;7.18;1.77;;;;;;;;;;5005569;28;20053;-76
2023/03/01 14:07:23;;;;;;;3.53;1.45;;;;;;;;;;5009754;28;20056;-74
2023/03/01 14:09:54;;;;;;;2.45;1.30;;;;;;;;;;4998269;28;20149;-74
2023/03/01 14:12:52;;;;;;;3.17;1.40;;;;;;;;;;5024829;28;20095;-74
2023/03/01 14:15:37;;;;;;;2.42;1.30;;;;;;;;;;4998614;28;20393;-74
2023/03/01 14:18:21;;;;;;;4.72;1.65;;;;;;;;;;5007239;28;20046;-75
2023/03/01 14:20:51;;;;;;;3.75;1.40;;;;;;;;;;5006507;28;20041;-74
2023/03/01 14:23:26;;;;;;;2.72;1.52;;;;;;;;;;5010588;28;20037;-74
2023/03/01 14:25:57;;;;;;;2.38;1.50;;;;;;;;;;5004545;28;20040;-74
2023/03/01 14:28:30;;;;;;;4.57;1.90;;;;;;;;;;5023367;28;20034;-74
2023/03/01 14:30:58;;;;;;;3.70;1.80;;;;;;;;;;5007218;28;20046;-74
2023/03/01 14:33:26;;;;;;;4.80;1.80;;;;;;;;;;5023588;28;20108;-74
2023/03/01 14:36:12;;;;;;;3.75;2.20;;;;;;;;;;5007927;28;20034;-74
2023/03/01 14:38:45;;;;;;;3.97;1.83;;;;;;;;;;5010400;28;20033;-74
2023/03/01 14:41:16;;;;;;;5.50;2.05;;;;;;;;;;5009911;28;20041;-75
2023/03/01 14:43:45;;;;;;;2.05;1.17;;;;;;;;;;5006191;28;20042;-75
2023/03/01 14:46:30;;;;;;;3.58;1.65;;;;;;;;;;5004854;28;20127;-74
2023/03/01 14:49:01;;;;;;;4.07;1.63;;;;;;;;;;5000502;28;20038;-74
2023/03/01 14:51:26;;;;;;;4.50;2.00;;;;;;;;;;5023287;28;20080;-74
2023/03/01 14:53:52;;;;;;;4.10;1.33;;;;;;;;;;5008296;28;20026;-75
2023/03/01 14:56:18;;;;;;;4.82;1.88;;;;;;;;;;5000916;28;20475;-74
2023/03/01 14:58:44;;;;;;;4.72;1.98;;;;;;;;;;5003147;28;20121;-74
2023/03/01 15:01:14;;;;;;;3.47;1.67;;;;;;;;;;5019493;28;20482;-74
2023/03/01 15:03:45;;;;;;;5.40;1.75;;;;;;;;;;5014920;28;20070;-74